Terminal Aerodrome Forecast
Issued by NWS Boise, ID

Current Version | Previous Version | Text Only | Print | Product List | Glossary On
Versions: 1 2 3 4 5 6 7 8 9 10 11 12 13 14 15 16 17 18 19 20 21 22 23 24
000
FTUS45 KBOI 231723
TAFBNO
TAF
KBNO 231723Z 2318/2418 VRB05KT P6SM SKC
     FM240000 29008KT P6SM SCT150 BKN250
     FM240600 26006KT P6SM VCSH BKN250=

USA.gov is the U.S. government's official web portal to all federal, state and local government web resources and services.